Air Resources Laboratory banner image
Air Resources Laboratory web site National Oceanic and Atmospheric Administration (NOAA)

nc metar


K2DP 211756Z AUTO 27007KT 10SM CLR 14/02 A3014 RMK AO2 SLPNO T01380023 10140
 20033 57025=
KAKH 211754Z AUTO VRB04KT 10SM CLR 13/01 A3020 RMK AO2 SLP229 I6000 T01330006
 10133 21006 58019=
KASJ 211800Z AUTO 26008KT 10SM CLR 11/M01 A3017 RMK AO2 T01101012=
KAVL 211754Z 34011KT 10SM CLR 10/M03 A3021 RMK AO2 SLP231 T01001028 10100 20000
 58018=
KBUY 211754Z AUTO 22007KT 10SM CLR 13/M04 A3018 RMK AO2 SLP221 T01281039 10128
 21028 58020=
KCLT 211752Z 28004KT 10SM CLR 13/01 A3021 RMK AO2 SLP230 T01330006 10133 21006
 58018=
KDPL 211800Z AUTO 29007KT 10SM CLR 14/02 A3019 RMK AO2=
KECG 211754Z 25007KT 10SM CLR 13/02 A3015 RMK AO2 SLP209 T01280022 10128 20017
 58026=
KEDE 211800Z AUTO 25007KT 10SM CLR 13/04 A3016 RMK AO2 T01320037=
KEQY 211753Z AUTO 28008KT 10SM CLR 13/01 A3020 RMK AO2 SLP240 T01280006 10128
 20000 58020=
KEWN 211754Z 26008KT 10SM CLR 15/04 A3018 RMK AO2 SLP218 T01500044 10150 20039
 58023=
KEXX 211800Z AUTO 00000KT 10SM CLR 12/M02 A3019 RMK AO2 T01221020=
KFAY 211753Z 26007KT 10SM CLR 14/01 A3019 RMK AO2 SLP219 T01390006 10144 20028
 58021=
KFBG 211639Z AUTO 00000KT 10SM CLR 12/00 A3022 RMK AO2 SLP237 $=
KGEV 211750Z AUTO 28006G18KT 10SM CLR 06/M08 A3016 RMK AO2 T00631076 10064
 21016=
KGSB 211756Z AUTO 27008G15KT 10SM CLR 14/00 A3017 RMK AO2 SLP220 T01420004
 10144 20017 57021 $=
KGSO 211754Z 28010KT 10SM CLR 12/M04 A3018 RMK AO2 SLP220 T01171039 10117 21017
 58017=
KHBI 211800Z AUTO 27005KT 10SM CLR 11/M03 A3022 RMK AO2 T01141026=
KHFF 211756Z AUTO 31006KT 10SM CLR 13/01 A3020 RMK AO2 SLP243 T01330008 10134
 21006 58020=
KHKY 211753Z 00000KT 10SM CLR 13/M04 A3018 RMK AO2 SLP213 T01281044 10128 21011
 58016=
KHRJ 211755Z AUTO 23003KT 10SM CLR 13/00 A3020 RMK AO2 T01300004 10132 20010=
KHSE 211751Z AUTO 32005KT 10SM CLR 14/06 A3015 RMK AO2 SLP208 T01440061 10144
 20100 58021=
KILM 211753Z 32007KT 10SM CLR 16/05 A3018 RMK AO2 SLP218 T01610050 10161 20044
 58021=
KINT 211754Z 10SM CLR 11/M04 A3020 RMK AO2 SLP227 T01111039 10111 21022 58017=
KIPJ 211800Z AUTO 28005KT 10SM CLR 12/M03 A3020 RMK AO2 T01241031=
KISO 211756Z 26006KT 10SM CLR 14/00 A3019=
KJNX 211745Z AUTO 25005KT 10SM CLR 13/00 A3019 RMK AO2=
KJQF 211750Z 24006KT 10SM CLR 13/00 A3023=
KLBT 211754Z AUTO 26007KT 10SM CLR 15/02 A3020 RMK AO2 SLP225 T01500022 10150
 20033 58019=
KMEB 211752Z AUTO VRB04KT 10SM CLR 14/01 A3021 RMK AO2 SLP230 T01390011 10139
 20011 58020=
KMQI 211820Z AUTO 35007KT 10SM CLR 11/02 A3014 RMK AO2 T01120018=
KMRH 211758Z AUTO 32006KT 10SM CLR 16/07 A3016 RMK AO2 SLP213 T01560067 10156
 20061 58019=
KMRN 211800Z AUTO 29003KT 10SM CLR 14/M08 A3021 RMK AO2 T01431080=
KMWK 211800Z AUTO 23005KT 10SM CLR 13/M06 A3019 RMK AO2 T01301060=
KNCA 211756Z 31008KT 10SM CLR 15/05 A3017 RMK AO2 SLP217 T01500050 10150 20044
 58021=
KNJM 211757Z AUTO 31007KT 10SM CLR 16/05 A3017 RMK AO2 SLP219 T01560050 10161
 20056 58019=
KNKT 211754Z VRB04KT 10SM CLR 16/07 A3017 RMK AO2 SLP213 T01560067 10156 20067
 58021=
KOAJ 211756Z VRB04KT 10SM CLR 14/04 A3018 RMK AO2 SLP226 T01440044 10144 20028
 58021=
KOCW 211800Z AUTO 24007KT 10SM CLR 14/01 A3017 RMK AO2 T01370005=
KPGV 211750Z AUTO 26006KT 10SM CLR 12/00 A3019 RMK AO2=
KPOB 211728Z AUTO 26007KT 10SM CLR 14/00 A3020 RMK AO2 SLP230 $=
KRDU 211751Z VRB03KT 10SM CLR 12/M01 A3019 RMK AO2 SLP222 T01221011 10122 21011
 58021=
KRUQ 211800Z AUTO 21004KT 10SM CLR 12/00 A3020 RMK AO2 T01151003=
KRWI 211753Z AUTO 27006KT 10SM CLR 12/00 A3018 RMK AO2 SLP220 I6001 T01220000
 10122 21006 57025=
KSOP 211756Z AUTO VRB04KT 10SM CLR 13/01 A3020 RMK AO2 SLP247 T01330006 10139
 21028 58021=
KSVH 211800Z AUTO 25005KT 10SM CLR 12/M01 A3019 RMK AO2 T01231013=
KTDF 211755Z AUTO 24004KT 10SM CLR 11/M02 A3020 RMK AO2=
KTNB 211755Z AUTO 31015G23KT 280V340 10SM CLR 06/M11 A3019 RMK AO2 T00581113
 10058 21007=
KUKF 211800Z AUTO 20007KT 10SM CLR 12/M04 A3023 RMK AO2=
KVUJ 211755Z AUTO 25005KT 10SM CLR 12/00 A3025 RMK AO2 T01190000 10121 21016=